createdAt,value
2023-03-03T00:01:00.751Z,124.60
2023-03-03T00:04:02.564Z,125.50
2023-03-03T00:10:06.432Z,178.90
2023-03-03T00:13:20.412Z,172.40
2023-03-03T00:16:31.845Z,186.10
2023-03-03T00:19:38.812Z,154.60
2023-03-03T00:22:40.705Z,144.70
2023-03-03T00:25:45.856Z,151.20
2023-03-03T00:28:49.977Z,147.00
2023-03-03T00:31:55.296Z,158.80
2023-03-03T00:35:02.504Z,155.70
2023-03-03T00:38:19.151Z,150.10
2023-03-03T00:41:26.409Z,137.20
2023-03-03T00:44:48.193Z,135.00
2023-03-03T00:47:49.852Z,126.00
2023-03-03T00:50:53.886Z,121.90
2023-03-03T00:53:56.721Z,126.90
2023-03-03T00:56:58.246Z,127.60
2023-03-03T00:59:59.900Z,125.50
2023-03-03T01:03:04.627Z,128.90
2023-03-03T01:06:07.222Z,134.50
2023-03-03T01:09:09.012Z,131.20
2023-03-03T01:12:11.511Z,132.90
2023-03-03T01:15:14.804Z,139.20
2023-03-03T01:18:16.534Z,130.40
2023-03-03T01:21:18.266Z,131.10
2023-03-03T01:24:28.561Z,130.80
2023-03-03T01:30:32.558Z,142.50
2023-03-03T01:33:35.274Z,139.00
2023-03-03T01:36:37.031Z,119.20
2023-03-03T01:39:38.553Z,153.50
2023-03-03T01:42:40.450Z,145.60
2023-03-03T01:46:02.383Z,164.30
2023-03-03T01:49:13.405Z,291.20
2023-03-03T01:52:24.730Z,270.70
2023-03-03T01:55:32.563Z,298.80
2023-03-03T01:58:36.908Z,227.80
2023-03-03T02:01:38.977Z,231.70
2023-03-03T02:04:40.897Z,235.00
2023-03-03T02:07:42.602Z,238.30
2023-03-03T02:10:46.156Z,242.40
2023-03-03T02:13:47.772Z,292.10
2023-03-03T02:16:49.320Z,348.40
2023-03-03T02:20:52.670Z,185.80
2023-03-03T02:24:34.233Z,200.80
2023-03-03T02:27:36.800Z,199.70
2023-03-03T02:30:39.615Z,221.50
2023-03-03T02:33:43.269Z,271.20
2023-03-03T02:36:44.912Z,279.50
2023-03-03T02:39:46.602Z,247.40
2023-03-03T02:42:49.064Z,244.10
2023-03-03T02:45:50.611Z,193.10
2023-03-03T02:48:52.301Z,228.40
2023-03-03T02:51:54.444Z,218.50
2023-03-03T02:54:56.057Z,195.10
2023-03-03T02:57:58.042Z,202.50
2023-03-03T03:01:00.072Z,211.20
2023-03-03T03:04:01.714Z,188.70
2023-03-03T03:07:03.488Z,229.20
2023-03-03T03:10:05.385Z,282.90
2023-03-03T03:16:08.512Z,258.50
2023-03-03T03:19:10.178Z,278.40
2023-03-03T03:22:11.868Z,355.00
2023-03-03T03:25:13.561Z,392.40
2023-03-03T03:28:17.052Z,357.00
2023-03-03T03:31:19.837Z,304.00
2023-03-03T03:34:21.441Z,375.70
2023-03-03T03:37:23.089Z,373.30
2023-03-03T03:40:24.869Z,379.20
2023-03-03T03:43:26.474Z,352.10
2023-03-03T03:46:28.133Z,349.70
2023-03-03T03:49:29.719Z,305.10
2023-03-03T03:52:31.425Z,304.80
2023-03-03T03:55:33.274Z,279.80
2023-03-03T04:01:36.434Z,183.20
2023-03-03T04:04:38.145Z,270.00
2023-03-03T04:07:39.900Z,286.50
2023-03-03T04:10:41.655Z,347.90
2023-03-03T04:13:43.458Z,368.80
2023-03-03T04:19:47.154Z,260.10
2023-03-03T04:22:48.939Z,365.30
2023-03-03T04:25:50.525Z,372.60
2023-03-03T04:28:52.307Z,343.30
2023-03-03T04:31:54.110Z,359.50
2023-03-03T04:35:07.283Z,372.10
2023-03-03T04:38:10.055Z,333.50
2023-03-03T04:41:11.768Z,370.20
2023-03-03T04:44:13.382Z,362.10
2023-03-03T04:47:14.978Z,367.10
2023-03-03T04:50:16.544Z,344.60
2023-03-03T04:53:18.308Z,380.20
2023-03-03T04:56:19.975Z,369.30
2023-03-03T04:59:21.668Z,387.80
2023-03-03T05:05:24.941Z,256.00
2023-03-03T05:08:26.512Z,256.10
2023-03-03T05:11:28.051Z,255.60
2023-03-03T05:14:29.627Z,245.90
2023-03-03T05:17:31.242Z,250.10
2023-03-03T05:20:32.974Z,241.30
2023-03-03T05:23:34.642Z,256.30
2023-03-03T05:26:36.313Z,264.00
2023-03-03T05:29:38.022Z,263.50
2023-03-03T05:32:39.678Z,285.10
2023-03-03T05:35:41.476Z,344.00
2023-03-03T05:41:44.889Z,306.30
2023-03-03T05:47:48.580Z,279.90
2023-03-03T05:50:50.163Z,273.40
2023-03-03T05:53:51.843Z,307.40
2023-03-03T05:56:53.507Z,268.80
2023-03-03T05:59:55.040Z,228.60
2023-03-03T06:02:56.710Z,268.60
2023-03-03T06:05:58.612Z,256.00
2023-03-03T06:09:00.172Z,288.50
2023-03-03T06:12:01.888Z,296.10
2023-03-03T06:15:03.831Z,235.60
2023-03-03T06:21:07.236Z,276.00
2023-03-03T06:27:10.649Z,258.40
2023-03-03T06:30:12.813Z,262.60
2023-03-03T06:33:14.489Z,276.90
2023-03-03T06:36:16.150Z,294.70
2023-03-03T06:39:17.676Z,311.10
2023-03-03T06:42:19.957Z,303.10
2023-03-03T06:45:21.649Z,274.10
2023-03-03T06:48:23.186Z,274.50
2023-03-03T06:51:38.624Z,275.90
2023-03-03T06:54:40.994Z,263.70
2023-03-03T06:57:42.487Z,269.10
2023-03-03T07:00:46.242Z,249.50
2023-03-03T07:03:47.917Z,259.70
2023-03-03T07:06:49.553Z,254.50
2023-03-03T07:09:55.988Z,246.90
2023-03-03T07:13:05.487Z,225.40
2023-03-03T07:16:12.419Z,216.90
2023-03-03T07:19:21.042Z,216.90
2023-03-03T07:22:25.825Z,221.10
2023-03-03T07:25:31.217Z,214.40
2023-03-03T07:28:33.505Z,210.70
2023-03-03T07:31:41.095Z,198.20
2023-03-03T07:34:44.847Z,207.10
2023-03-03T07:37:46.443Z,195.50
2023-03-03T07:43:56.155Z,187.00
2023-03-03T07:46:57.845Z,176.00
2023-03-03T07:50:14.502Z,186.10
2023-03-03T07:53:27.632Z,179.30
2023-03-03T07:56:35.180Z,167.20
2023-03-03T07:59:38.836Z,177.40
2023-03-03T08:02:49.027Z,164.10
2023-03-03T08:05:51.487Z,178.30
2023-03-03T08:08:53.082Z,169.30
2023-03-03T08:12:00.614Z,169.40
2023-03-03T08:15:17.248Z,162.90
2023-03-03T08:18:44.214Z,156.50
2023-03-03T08:21:46.314Z,158.70
2023-03-03T08:24:47.991Z,159.00
2023-03-03T08:27:49.922Z,152.60
2023-03-03T08:33:57.728Z,144.20
2023-03-03T08:40:01.016Z,148.70
2023-03-03T08:43:03.573Z,145.20
2023-03-03T08:46:06.624Z,146.20
2023-03-03T08:49:08.301Z,153.60
2023-03-03T08:52:10.594Z,161.60
2023-03-03T08:58:15.771Z,157.80
2023-03-03T09:01:18.286Z,153.00
2023-03-03T09:04:19.966Z,157.50
2023-03-03T09:10:25.382Z,149.80
2023-03-03T09:13:30.135Z,152.10
2023-03-03T09:16:37.079Z,158.00
2023-03-03T09:19:38.873Z,159.80
2023-03-03T09:25:42.336Z,158.40
2023-03-03T09:28:44.223Z,159.40
2023-03-03T09:34:51.440Z,160.90
2023-03-03T09:41:19.332Z,154.80
2023-03-03T09:44:58.898Z,157.10
2023-03-03T09:48:23.948Z,155.10
2023-03-03T09:51:57.803Z,147.60
2023-03-03T09:55:14.388Z,146.10
2023-03-03T09:58:18.743Z,142.90
2023-03-03T10:01:45.708Z,138.80
2023-03-03T10:04:56.503Z,139.30
2023-03-03T10:08:16.937Z,149.00
2023-03-03T10:11:32.433Z,139.80
2023-03-03T10:14:40.729Z,143.90
2023-03-03T10:17:58.898Z,142.80
2023-03-03T10:21:09.561Z,144.00
2023-03-03T10:24:14.377Z,142.80
2023-03-03T10:27:19.020Z,146.50
2023-03-03T10:31:04.690Z,146.30
2023-03-03T10:34:23.888Z,140.80
2023-03-03T10:37:56.950Z,136.80
2023-03-03T10:41:16.757Z,139.80
2023-03-03T10:44:34.488Z,142.60
2023-03-03T10:48:09.872Z,150.00
2023-03-03T10:51:25.015Z,143.30
2023-03-03T10:54:41.630Z,144.50
2023-03-03T10:57:43.468Z,141.70
2023-03-03T11:01:20.341Z,115.00
2023-03-03T11:04:36.323Z,107.80
2023-03-03T11:07:46.690Z,115.40
2023-03-03T11:10:54.332Z,114.10
2023-03-03T11:14:24.338Z,115.60
2023-03-03T11:17:41.533Z,109.90
2023-03-03T11:20:54.361Z,119.20
2023-03-03T11:24:07.019Z,119.50
2023-03-03T11:27:11.902Z,118.50
2023-03-03T11:30:31.554Z,109.70
2023-03-03T11:33:36.013Z,117.80
2023-03-03T11:36:50.576Z,110.70
2023-03-03T11:39:54.510Z,111.50
2023-03-03T11:43:12.057Z,110.20
2023-03-03T11:46:17.298Z,105.90
2023-03-03T11:49:41.387Z,107.80
2023-03-03T11:53:06.707Z,108.50
2023-03-03T11:56:36.064Z,105.90
2023-03-03T12:00:12.011Z,100.60
2023-03-03T12:03:30.274Z,103.20
2023-03-03T12:06:58.665Z,98.10
2023-03-03T12:10:15.564Z,98.90
2023-03-03T12:13:34.794Z,96.00
2023-03-03T12:17:02.362Z,93.10
2023-03-03T12:20:15.404Z,99.50
2023-03-03T12:23:41.863Z,101.40
2023-03-03T12:26:46.708Z,82.00
2023-03-03T12:30:17.002Z,82.60
2023-03-03T12:33:33.688Z,78.40
2023-03-03T12:37:03.712Z,80.20
2023-03-03T12:40:09.502Z,79.00
2023-03-03T12:43:14.086Z,81.50
2023-03-03T12:46:53.335Z,88.00
2023-03-03T12:50:08.092Z,84.20
2023-03-03T12:53:34.265Z,90.10
2023-03-03T12:56:41.985Z,87.30
2023-03-03T13:00:02.113Z,87.70
2023-03-03T13:03:32.112Z,81.90
2023-03-03T13:06:42.455Z,86.50
2023-03-03T13:09:58.883Z,96.70
2023-03-03T13:13:06.714Z,95.90
2023-03-03T13:16:17.101Z,92.70
2023-03-03T13:19:26.400Z,93.60
2023-03-03T13:22:39.782Z,90.20
2023-03-03T13:25:50.494Z,96.30
2023-03-03T13:28:56.976Z,85.90
2023-03-03T13:32:21.131Z,86.90
2023-03-03T13:35:32.345Z,99.50
2023-03-03T13:38:48.591Z,99.20
2023-03-03T13:42:14.186Z,94.60
2023-03-03T13:45:26.107Z,102.10
2023-03-03T13:48:49.244Z,87.90
2023-03-03T13:52:09.463Z,98.20
2023-03-03T13:55:18.445Z,101.80
2023-03-03T13:58:32.519Z,110.00
2023-03-03T14:01:52.452Z,87.50
2023-03-03T14:05:02.687Z,84.10
2023-03-03T14:08:25.739Z,81.90
2023-03-03T14:11:36.124Z,79.30
2023-03-03T14:14:47.957Z,80.60
2023-03-03T14:18:15.986Z,87.70
2023-03-03T14:21:43.730Z,96.00
2023-03-03T14:25:18.118Z,83.20
2023-03-03T14:28:22.407Z,78.40
2023-03-03T14:31:26.987Z,84.00
2023-03-03T14:34:35.964Z,80.50
2023-03-03T14:37:46.919Z,83.10
2023-03-03T14:40:49.613Z,83.20
2023-03-03T14:43:58.790Z,73.10
2023-03-03T14:47:19.685Z,76.00
2023-03-03T14:50:35.318Z,75.20
2023-03-03T14:53:43.329Z,79.20
2023-03-03T14:57:20.032Z,84.40
2023-03-03T15:00:21.596Z,76.10
2023-03-03T15:03:27.479Z,74.90
2023-03-03T15:06:33.842Z,76.70
2023-03-03T15:09:42.053Z,76.80
2023-03-03T15:12:45.138Z,75.10
2023-03-03T15:15:52.628Z,74.80
2023-03-03T15:19:19.210Z,81.90
2023-03-03T15:22:47.265Z,115.70
2023-03-03T15:26:02.536Z,81.10
2023-03-03T15:29:26.570Z,101.70
2023-03-03T15:32:33.559Z,78.40
2023-03-03T15:35:35.255Z,77.60
2023-03-03T15:42:01.547Z,86.40
2023-03-03T15:45:12.059Z,78.80
2023-03-03T15:48:38.291Z,80.80
2023-03-03T15:52:02.518Z,93.10
2023-03-03T15:55:46.571Z,86.30
2023-03-03T15:59:06.828Z,78.00
2023-03-03T16:02:20.754Z,77.30
2023-03-03T16:05:28.356Z,74.20
2023-03-03T16:08:49.907Z,77.70
2023-03-03T16:11:57.766Z,88.30
2023-03-03T16:14:59.310Z,84.90
2023-03-03T16:18:52.350Z,81.30
2023-03-03T16:22:17.634Z,83.10
2023-03-03T16:25:40.840Z,84.10
2023-03-03T16:29:02.600Z,82.50
2023-03-03T16:32:16.929Z,78.70
2023-03-03T16:35:26.835Z,78.20
2023-03-03T16:38:31.292Z,76.90
2023-03-03T16:41:47.854Z,79.70
2023-03-03T16:45:25.182Z,80.70
2023-03-03T16:48:47.261Z,73.60
2023-03-03T16:51:54.981Z,77.50
2023-03-03T16:55:05.847Z,70.40
2023-03-03T16:58:16.715Z,112.20
2023-03-03T17:01:37.027Z,83.10
2023-03-03T17:04:52.642Z,80.90
2023-03-03T17:08:17.910Z,76.00
2023-03-03T17:11:25.588Z,75.70
2023-03-03T17:14:46.009Z,73.90
2023-03-03T17:18:09.522Z,84.90
2023-03-03T17:22:06.961Z,89.70
2023-03-03T17:25:14.337Z,103.70
2023-03-03T17:28:32.269Z,102.50
2023-03-03T17:31:49.910Z,95.50
2023-03-03T17:35:16.777Z,103.60
2023-03-03T17:38:45.641Z,96.90
2023-03-03T17:41:56.333Z,102.50
2023-03-03T17:45:00.914Z,105.60
2023-03-03T17:48:19.674Z,99.80
2023-03-03T17:51:59.947Z,103.10
2023-03-03T17:55:17.129Z,107.60
2023-03-03T17:58:37.349Z,103.70
2023-03-03T18:01:58.845Z,109.60
2023-03-03T18:05:23.928Z,105.80
2023-03-03T18:08:40.648Z,103.80
2023-03-03T18:12:03.593Z,108.90
2023-03-03T18:15:28.039Z,105.30
2023-03-03T18:19:12.845Z,105.80
2023-03-03T18:22:49.960Z,96.90
2023-03-03T18:25:55.125Z,103.30
2023-03-03T18:29:17.098Z,90.80
2023-03-03T18:32:21.896Z,102.20
2023-03-03T18:35:32.827Z,101.60
2023-03-03T18:38:38.428Z,108.90
2023-03-03T18:42:04.953Z,102.20
2023-03-03T18:45:38.915Z,97.50
2023-03-03T18:49:01.579Z,101.00
2023-03-03T18:52:35.866Z,99.60
2023-03-03T18:55:59.779Z,101.10
2023-03-03T18:59:01.461Z,100.80
2023-03-03T19:02:18.138Z,100.30
2023-03-03T19:05:25.415Z,98.40
2023-03-03T19:08:27.031Z,98.60
2023-03-03T19:11:39.716Z,90.30
2023-03-03T19:14:44.156Z,90.10
2023-03-03T19:17:48.698Z,90.50
2023-03-03T19:21:01.538Z,94.60
2023-03-03T19:24:05.289Z,92.90
2023-03-03T19:27:28.472Z,94.20
2023-03-03T19:30:42.266Z,89.70
2023-03-03T19:34:02.034Z,94.20
2023-03-03T19:37:30.159Z,96.00
2023-03-03T19:40:42.653Z,91.50
2023-03-03T19:44:10.408Z,94.30
2023-03-03T19:47:32.306Z,90.50
2023-03-03T19:53:58.715Z,92.10
2023-03-03T19:57:02.654Z,89.70
2023-03-03T20:00:19.195Z,86.40
2023-03-03T20:03:45.041Z,92.80
2023-03-03T20:07:27.006Z,83.50
2023-03-03T20:10:37.384Z,82.10
2023-03-03T20:14:02.489Z,81.30
2023-03-03T20:17:41.746Z,84.60
2023-03-03T20:21:06.589Z,90.20
2023-03-03T20:24:30.313Z,77.90
2023-03-03T20:27:31.903Z,79.20
2023-03-03T20:31:06.973Z,81.70
2023-03-03T20:34:14.067Z,75.80
2023-03-03T20:37:51.400Z,81.30
2023-03-03T20:41:02.063Z,80.00
2023-03-03T20:44:14.219Z,84.60
2023-03-03T20:47:58.238Z,80.60
2023-03-03T20:51:26.254Z,81.40
2023-03-03T20:54:46.353Z,82.30
2023-03-03T20:57:58.242Z,82.90
2023-03-03T21:04:26.857Z,76.20
2023-03-03T21:07:28.419Z,88.90
2023-03-03T21:10:32.163Z,86.60
2023-03-03T21:13:42.482Z,77.00
2023-03-03T21:16:44.211Z,83.50
2023-03-03T21:19:45.765Z,79.00
2023-03-03T21:22:47.714Z,78.60
2023-03-03T21:25:54.127Z,80.90
2023-03-03T21:29:02.294Z,80.80
2023-03-03T21:32:07.192Z,81.80
2023-03-03T21:35:29.269Z,89.00
2023-03-03T21:41:55.158Z,89.40
2023-03-03T21:44:56.767Z,88.00
2023-03-03T21:48:00.208Z,91.60
2023-03-03T21:51:03.967Z,84.10
2023-03-03T21:57:07.517Z,91.40
2023-03-03T22:00:10.403Z,88.50
2023-03-03T22:03:12.932Z,90.50
2023-03-03T22:06:14.471Z,91.00
2023-03-03T22:09:16.108Z,89.20
2023-03-03T22:12:18.025Z,93.20
2023-03-03T22:15:19.697Z,91.40
2023-03-03T22:21:22.859Z,105.60
2023-03-03T22:24:24.508Z,100.60
2023-03-03T22:27:26.156Z,103.40
2023-03-03T22:30:27.677Z,101.30
2023-03-03T22:33:29.203Z,116.70
2023-03-03T22:36:30.735Z,110.20
2023-03-03T22:39:32.368Z,119.70
2023-03-03T22:42:33.981Z,110.80
2023-03-03T22:45:35.550Z,111.60
2023-03-03T22:48:38.382Z,114.40
2023-03-03T22:51:40.316Z,117.90
2023-03-03T22:54:41.901Z,112.80
2023-03-03T23:02:03.156Z,113.50
2023-03-03T23:05:05.113Z,110.60
2023-03-03T23:08:09.830Z,114.30
2023-03-03T23:11:11.414Z,112.00
2023-03-03T23:14:12.999Z,118.80
2023-03-03T23:20:19.528Z,110.10
2023-03-03T23:23:21.386Z,125.10
2023-03-03T23:26:22.982Z,130.30
2023-03-03T23:29:24.832Z,132.60
2023-03-03T23:35:28.092Z,127.40
2023-03-03T23:38:29.694Z,133.00
2023-03-03T23:41:31.274Z,126.60
2023-03-03T23:44:32.910Z,127.00
2023-03-03T23:47:34.552Z,129.90
2023-03-03T23:50:36.163Z,118.30
2023-03-03T23:53:37.713Z,119.60
2023-03-03T23:56:39.259Z,115.00
2023-03-03T23:59:40.958Z,123.30
